Time;durP1;ratioP1;P1;durP2;ratioP2;P2;SDS_P1;SDS_P2;PMS_P1;PMS_P2;Temp;Humidity;BMP_temperature;BMP_pressure;BME280_temperature;BME280_humidity;BME280_pressure;Samples;Min_cycle;Max_cycle;Signal;HPM_P1;HPM_P2
2021/01/21 00:00:36;;;;;;;107.03;79.33;;;5.60;83.50;;;;;;5033218;28;20104;-70
2021/01/21 00:03:02;;;;;;;103.87;79.33;;;5.60;83.30;;;;;;5031879;28;20414;-70
2021/01/21 00:05:28;;;;;;;102.73;76.20;;;5.60;82.90;;;;;;5032930;28;20048;-70
2021/01/21 00:07:54;;;;;;;102.27;76.23;;;5.60;83.60;;;;;;5033196;28;20026;-70
2021/01/21 00:10:20;;;;;;;108.10;74.70;;;5.60;83.60;;;;;;5033158;28;20370;-71
2021/01/21 00:12:45;;;;;;;99.20;73.33;;;5.60;83.50;;;;;;5033005;28;20067;-70
2021/01/21 00:15:11;;;;;;;97.47;72.37;;;5.60;83.30;;;;;;5031632;28;20132;-70
2021/01/21 00:17:37;;;;;;;101.63;72.23;;;5.60;83.50;;;;;;5031922;28;20037;-70
2021/01/21 00:20:04;;;;;;;98.30;69.97;;;5.60;83.30;;;;;;5033079;28;20022;-70
2021/01/21 00:22:30;;;;;;;97.03;70.03;;;5.60;83.10;;;;;;5032909;28;20029;-70
2021/01/21 00:24:56;;;;;;;92.03;66.10;;;5.60;82.90;;;;;;5033205;28;20036;-70
2021/01/21 00:27:21;;;;;;;86.67;63.10;;;5.60;82.80;;;;;;5033022;28;20064;-70
2021/01/21 00:29:47;;;;;;;87.07;62.87;;;5.70;82.60;;;;;;5032905;28;20382;-70
2021/01/21 00:32:13;;;;;;;93.33;65.27;;;5.70;82.50;;;;;;5032862;28;20026;-70
2021/01/21 00:34:38;;;;;;;97.23;65.57;;;5.70;82.70;;;;;;5032641;28;20025;-70
2021/01/21 00:37:04;;;;;;;89.10;63.27;;;5.70;82.70;;;;;;5032963;28;20025;-70
2021/01/21 00:39:30;;;;;;;88.43;65.40;;;5.70;83.20;;;;;;5032906;28;20044;-70
2021/01/21 00:41:55;;;;;;;93.80;66.20;;;5.70;83.20;;;;;;5032894;28;20496;-71
2021/01/21 00:44:21;;;;;;;86.20;61.43;;;5.70;83.10;;;;;;5032608;28;20486;-70
2021/01/21 00:46:47;;;;;;;91.73;60.63;;;5.70;83.40;;;;;;5032498;28;20029;-70
2021/01/21 00:49:12;;;;;;;80.10;57.63;;;5.70;83.20;;;;;;5032945;28;20029;-70
2021/01/21 00:51:38;;;;;;;81.73;56.67;;;5.70;83.10;;;;;;5032913;28;20025;-71
2021/01/21 00:54:04;;;;;;;85.50;62.47;;;5.70;82.50;;;;;;5032660;28;20029;-70
2021/01/21 00:56:29;;;;;;;92.70;68.80;;;5.70;82.70;;;;;;5032758;28;20049;-70
2021/01/21 00:58:55;;;;;;;93.43;68.03;;;5.70;82.70;;;;;;5032501;28;20053;-70
2021/01/21 01:01:20;;;;;;;90.93;67.20;;;5.70;83.50;;;;;;5032715;28;20569;-70
2021/01/21 01:03:46;;;;;;;95.97;72.70;;;5.70;83.50;;;;;;5032199;28;20037;-70
2021/01/21 01:06:12;;;;;;;94.27;68.50;;;5.70;83.60;;;;;;5034220;28;20429;-70
2021/01/21 01:08:38;;;;;;;97.80;70.77;;;5.60;83.40;;;;;;5036608;28;20082;-70
2021/01/21 01:11:04;;;;;;;97.70;71.17;;;5.60;83.40;;;;;;5036461;28;20049;-70
2021/01/21 01:13:30;;;;;;;96.77;73.20;;;5.60;83.30;;;;;;5036375;28;20025;-70
2021/01/21 01:15:56;;;;;;;105.30;77.87;;;5.60;83.40;;;;;;5036421;28;20033;-70
2021/01/21 01:18:21;;;;;;;108.80;77.83;;;5.70;84.50;;;;;;5036318;28;20033;-70
2021/01/21 01:20:48;;;;;;;106.87;76.73;;;5.60;83.60;;;;;;5036438;28;20067;-70
2021/01/21 01:23:14;;;;;;;100.23;72.63;;;5.70;83.60;;;;;;5035964;28;20449;-70
2021/01/21 01:25:40;;;;;;;105.63;73.73;;;5.70;83.60;;;;;;5035661;28;20025;-71
2021/01/21 01:28:06;;;;;;;94.73;71.83;;;5.60;83.50;;;;;;5035750;28;20685;-70
2021/01/21 01:30:31;;;;;;;96.87;69.37;;;5.70;83.60;;;;;;5036072;28;20029;-70
2021/01/21 01:32:57;;;;;;;93.30;69.07;;;5.60;83.50;;;;;;5035952;28;20029;-71
2021/01/21 01:35:23;;;;;;;86.03;60.77;;;5.70;83.70;;;;;;5035854;28;20028;-71
2021/01/21 01:37:48;;;;;;;87.07;61.13;;;5.60;84.00;;;;;;5035137;28;20474;-70
2021/01/21 01:40:15;;;;;;;81.50;59.53;;;5.70;83.70;;;;;;5035053;28;20072;-71
2021/01/21 01:42:41;;;;;;;83.63;60.80;;;5.70;83.40;;;;;;5035188;28;20478;-70
2021/01/21 01:45:09;;;;;;;86.83;60.17;;;5.70;83.40;;;;;;5035667;28;20086;-70
2021/01/21 01:47:42;;;;;;;89.10;62.60;;;5.70;83.50;;;;;;5035773;28;20036;-70
2021/01/21 01:50:10;;;;;;;82.30;57.40;;;5.70;84.00;;;;;;5035163;28;20080;-70
2021/01/21 01:52:41;;;;;;;80.37;59.43;;;5.70;83.20;;;;;;5034947;28;20466;-70
2021/01/21 01:55:12;;;;;;;80.70;58.27;;;5.70;83.20;;;;;;5034674;28;20108;-70
2021/01/21 01:57:38;;;;;;;84.27;62.37;;;5.70;83.10;;;;;;5034125;28;20148;-71
2021/01/21 02:00:05;;;;;;;92.17;67.17;;;5.70;82.80;;;;;;5032612;28;20026;-70
2021/01/21 02:02:31;;;;;;;95.60;69.57;;;5.70;82.80;;;;;;5032798;28;20116;-70
2021/01/21 02:04:57;;;;;;;84.93;63.50;;;5.70;82.80;;;;;;5033929;28;20045;-70
2021/01/21 02:07:23;;;;;;;93.00;68.53;;;5.70;82.60;;;;;;5034873;28;20029;-70
2021/01/21 02:09:49;;;;;;;95.33;68.87;;;5.70;82.50;;;;;;5034881;28;20053;-70
2021/01/21 02:12:28;;;;;;;95.90;69.43;;;5.70;82.90;;;;;;5035107;28;20026;-70
2021/01/21 02:15:15;;;;;;;97.50;69.27;;;5.70;82.80;;;;;;5034651;28;20022;-70
2021/01/21 02:18:07;;;;;;;92.30;68.70;;;5.70;83.20;;;;;;5035003;28;20552;-70
2021/01/21 02:21:00;;;;;;;93.33;68.73;;;5.70;83.50;;;;;;5034534;28;20470;-70
2021/01/21 02:23:45;;;;;;;93.32;67.03;;;5.70;84.00;;;;;;5035013;28;20223;-70
2021/01/21 02:26:18;;;;;;;91.70;68.77;;;5.70;83.90;;;;;;5034993;28;20021;-71
2021/01/21 02:28:50;;;;;;;;;;;5.70;83.90;;;;;;5034743;28;20506;-70
2021/01/21 02:31:38;;;;;;;84.90;63.90;;;5.70;84.10;;;;;;5034802;28;19909;-70
2021/01/21 02:34:06;;;;;;;96.33;70.10;;;5.60;84.00;;;;;;5034535;28;20030;-71
2021/01/21 02:36:44;;;;;;;98.77;72.80;;;5.60;84.20;;;;;;5034645;28;20546;-70
2021/01/21 02:39:11;;;;;;;98.87;72.40;;;5.60;84.40;;;;;;5033452;28;20075;-71
2021/01/21 02:41:37;;;;;;;96.30;71.37;;;5.70;84.70;;;;;;5034454;28;20110;-70
2021/01/21 02:44:03;;;;;;;95.17;71.17;;;5.60;84.50;;;;;;5034186;28;20037;-70
2021/01/21 02:46:29;;;;;;;94.47;70.93;;;5.60;84.50;;;;;;5034423;28;20068;-71
2021/01/21 02:48:58;;;;;;;97.70;72.93;;;5.60;84.50;;;;;;5034279;28;20026;-70
2021/01/21 02:51:38;;;;;;;105.80;75.47;;;5.60;84.00;;;;;;5034298;28;20024;-70
2021/01/21 02:54:24;;;;;;;103.33;75.73;;;5.60;83.70;;;;;;5034576;28;20415;-71
2021/01/21 02:56:56;;;;;;;101.10;73.73;;;5.60;83.90;;;;;;5034247;28;20033;-70
2021/01/21 02:59:26;;;;;;;109.47;78.57;;;5.60;84.60;;;;;;5034177;28;20390;-70
2021/01/21 03:01:54;;;;;;;100.27;76.67;;;5.60;84.40;;;;;;5034319;28;20017;-70
2021/01/21 03:04:24;;;;;;;109.00;81.70;;;5.60;84.60;;;;;;5034054;28;20037;-70
2021/01/21 03:06:51;;;;;;;106.03;80.33;;;5.60;84.60;;;;;;5034137;28;20025;-70
2021/01/21 03:09:17;;;;;;;106.57;79.30;;;5.60;84.60;;;;;;5034020;28;20041;-70
2021/01/21 03:11:43;;;;;;;104.93;78.10;;;5.60;84.40;;;;;;5034060;28;20474;-70
2021/01/21 03:14:09;;;;;;;95.27;74.63;;;5.70;84.70;;;;;;5034119;28;20025;-71
2021/01/21 03:16:34;;;;;;;97.37;73.43;;;5.60;84.40;;;;;;5034201;28;20482;-70
2021/01/21 03:19:00;;;;;;;96.80;74.73;;;5.60;84.70;;;;;;5033701;28;20376;-70
2021/01/21 03:21:26;;;;;;;97.83;73.83;;;5.60;84.70;;;;;;5034030;28;20026;-70
2021/01/21 03:23:51;;;;;;;96.33;69.53;;;5.60;84.60;;;;;;5033829;28;20040;-71
2021/01/21 03:26:17;;;;;;;92.43;70.90;;;5.60;84.60;;;;;;5033777;28;20445;-70
2021/01/21 03:28:43;;;;;;;93.93;68.33;;;5.60;84.60;;;;;;5032883;28;20056;-70
2021/01/21 03:31:08;;;;;;;79.30;60.07;;;5.60;84.70;;;;;;5033818;28;20415;-70
2021/01/21 03:33:34;;;;;;;80.37;58.97;;;5.60;84.70;;;;;;5033813;28;20037;-70
2021/01/21 03:36:00;;;;;;;76.57;54.00;;;5.60;84.50;;;;;;5033875;28;20030;-71
2021/01/21 03:38:25;;;;;;;79.07;57.20;;;5.70;84.20;;;;;;5033590;28;20030;-70
2021/01/21 03:40:51;;;;;;;78.23;56.77;;;5.70;84.30;;;;;;5033608;28;20021;-71
2021/01/21 03:43:17;;;;;;;70.20;50.83;;;5.70;83.90;;;;;;5033505;28;20485;-70
2021/01/21 03:45:42;;;;;;;71.43;50.73;;;5.70;83.70;;;;;;5033682;28;20398;-70
2021/01/21 03:48:08;;;;;;;66.30;48.77;;;5.70;83.90;;;;;;5033492;28;20025;-70
2021/01/21 03:50:34;;;;;;;68.77;47.87;;;5.70;83.70;;;;;;5033565;28;20036;-70
2021/01/21 03:53:00;;;;;;;68.87;48.17;;;5.70;83.50;;;;;;5033504;28;20025;-71
2021/01/21 03:55:25;;;;;;;65.73;46.63;;;5.70;84.30;;;;;;5033228;28;20386;-70
2021/01/21 03:57:51;;;;;;;65.47;47.93;;;5.70;84.00;;;;;;5033540;28;20037;-70
2021/01/21 04:00:17;;;;;;;68.80;48.57;;;5.70;84.20;;;;;;5033367;28;20558;-70
2021/01/21 04:02:43;;;;;;;61.27;46.60;;;5.70;84.40;;;;;;5033494;28;20394;-70
2021/01/21 04:05:09;;;;;;;63.47;45.07;;;5.70;84.30;;;;;;5033302;28;20041;-70
2021/01/21 04:07:34;;;;;;;61.47;46.27;;;5.70;84.00;;;;;;5032261;28;20026;-70
2021/01/21 04:10:00;;;;;;;68.37;46.93;;;5.70;83.90;;;;;;5032725;28;20082;-70
2021/01/21 04:12:26;;;;;;;59.00;44.53;;;5.70;83.50;;;;;;5033047;28;20021;-70
2021/01/21 04:14:51;;;;;;;58.03;44.63;;;5.70;82.90;;;;;;5032836;28;20052;-70
2021/01/21 04:17:17;;;;;;;67.03;47.60;;;5.80;82.80;;;;;;5032779;28;20040;-70
2021/01/21 04:19:43;;;;;;;67.70;48.87;;;5.70;83.20;;;;;;5033089;28;20040;-70
2021/01/21 04:22:08;;;;;;;67.17;49.43;;;5.70;83.10;;;;;;5032838;28;20029;-70
2021/01/21 04:24:34;;;;;;;68.67;52.03;;;5.70;82.90;;;;;;5032792;28;20076;-70
2021/01/21 04:27:00;;;;;;;65.40;49.37;;;5.70;83.00;;;;;;5032661;28;20029;-70
2021/01/21 04:29:25;;;;;;;70.60;51.37;;;5.70;83.90;;;;;;5032522;28;20141;-71
2021/01/21 04:31:51;;;;;;;69.90;51.53;;;5.70;84.10;;;;;;5032896;28;20025;-70
2021/01/21 04:34:17;;;;;;;73.13;54.53;;;5.70;83.40;;;;;;5032971;28;20068;-70
2021/01/21 04:36:42;;;;;;;78.93;58.77;;;5.70;83.90;;;;;;5032728;28;20479;-70
2021/01/21 04:39:08;;;;;;;81.67;60.33;;;5.70;84.70;;;;;;5032649;28;20033;-70
2021/01/21 04:41:34;;;;;;;76.80;58.03;;;5.70;84.90;;;;;;5035465;28;20385;-70
2021/01/21 04:44:00;;;;;;;82.63;59.23;;;5.70;84.70;;;;;;5036695;28;20390;-70
2021/01/21 04:46:26;;;;;;;82.53;63.03;;;5.70;84.70;;;;;;5036701;28;20072;-70
2021/01/21 04:48:53;;;;;;;80.90;60.73;;;5.70;84.70;;;;;;5036553;28;20029;-70
2021/01/21 04:51:20;;;;;;;84.27;64.07;;;5.70;84.70;;;;;;5036857;28;20045;-70
2021/01/21 04:53:55;;;;;;;84.17;63.93;;;5.70;85.10;;;;;;5036782;28;20075;-70
2021/01/21 04:56:37;;;;;;;90.43;67.00;;;5.70;84.50;;;;;;5036856;28;20021;-70
2021/01/21 04:59:08;;;;;;;90.35;68.05;;;5.60;84.30;;;;;;5036553;28;20087;-70
2021/01/21 05:01:34;;;;;;;89.00;67.37;;;5.70;84.30;;;;;;5036579;28;20486;-70
2021/01/21 05:04:01;;;;;;;86.57;67.83;;;5.70;84.30;;;;;;5036360;28;20037;-71
2021/01/21 05:06:27;;;;;;;86.37;65.97;;;5.70;84.20;;;;;;5036501;28;20025;-70
2021/01/21 05:08:53;;;;;;;91.20;66.57;;;5.70;84.10;;;;;;5036407;28;20043;-70
2021/01/21 05:11:19;;;;;;;88.73;66.70;;;5.70;83.90;;;;;;5036320;28;20032;-70
2021/01/21 05:13:45;;;;;;;87.77;65.30;;;5.70;84.40;;;;;;5036211;28;20482;-70
2021/01/21 05:16:10;;;;;;;88.00;68.53;;;5.70;84.40;;;;;;5036366;28;20348;-70
2021/01/21 05:18:37;;;;;;;90.47;67.73;;;5.70;84.30;;;;;;5036074;28;20029;-70
2021/01/21 05:21:04;;;;;;;86.67;66.57;;;5.70;84.80;;;;;;5036004;28;20467;-70
2021/01/21 05:23:30;;;;;;;90.20;67.90;;;5.70;84.70;;;;;;5036076;28;20025;-70
2021/01/21 05:25:56;;;;;;;89.73;66.77;;;5.70;84.60;;;;;;5036295;28;20026;-70
2021/01/21 05:28:24;;;;;;;84.67;64.77;;;5.70;84.80;;;;;;5035620;28;20405;-71
2021/01/21 05:30:49;;;;;;;87.00;65.37;;;5.70;85.50;;;;;;5036029;28;20057;-70
2021/01/21 05:33:15;;;;;;;89.00;64.47;;;5.70;84.70;;;;;;5036170;28;20057;-70
2021/01/21 05:35:42;;;;;;;86.87;64.73;;;5.70;84.90;;;;;;5036010;28;20025;-71
2021/01/21 05:38:08;;;;;;;86.03;63.90;;;5.70;84.70;;;;;;5034907;28;20021;-70
2021/01/21 05:40:36;;;;;;;84.23;64.30;;;5.70;84.70;;;;;;5035120;28;20030;-70
2021/01/21 05:43:02;;;;;;;78.80;57.23;;;5.70;84.50;;;;;;5035036;28;20124;-70
2021/01/21 05:45:29;;;;;;;75.03;54.47;;;5.70;84.20;;;;;;5035225;28;20029;-70
2021/01/21 05:48:00;;;;;;;64.57;49.10;;;5.70;84.30;;;;;;5035483;28;20029;-70
2021/01/21 05:50:27;;;;;;;63.90;47.23;;;5.70;83.90;;;;;;5035160;28;20029;-70
2021/01/21 05:52:55;;;;;;;59.33;44.17;;;5.80;83.90;;;;;;5034113;28;20030;-71
2021/01/21 05:55:22;;;;;;;67.33;48.07;;;5.80;83.70;;;;;;5034923;28;20029;-71
2021/01/21 05:57:50;;;;;;;67.43;49.07;;;5.80;83.60;;;;;;5034859;28;20053;-70
2021/01/21 06:00:20;;;;;;;65.47;45.97;;;5.80;83.60;;;;;;5035140;28;20082;-70
2021/01/21 06:02:49;;;;;;;65.37;46.90;;;5.80;83.50;;;;;;5035005;28;20029;-70
2021/01/21 06:05:20;;;;;;;67.00;47.30;;;5.80;83.30;;;;;;5034822;28;20110;-70
2021/01/21 06:07:50;;;;;;;63.37;46.90;;;5.80;83.30;;;;;;5034592;28;20025;-71
2021/01/21 06:10:16;;;;;;;58.60;44.57;;;5.80;83.10;;;;;;5034241;28;20569;-70
2021/01/21 06:12:50;;;;;;;58.07;42.73;;;5.80;83.30;;;;;;5034306;28;20030;-70
2021/01/21 06:15:17;;;;;;;63.00;45.83;;;5.80;83.30;;;;;;5035030;28;20033;-70
2021/01/21 06:17:44;;;;;;;61.37;45.83;;;5.80;83.30;;;;;;5033866;28;20420;-70
2021/01/21 06:20:11;;;;;;;60.47;45.13;;;5.80;85.20;;;;;;5034737;28;20049;-70
2021/01/21 06:22:40;;;;;;;64.23;49.03;;;5.80;84.50;;;;;;5035001;28;20034;-70
2021/01/21 06:25:11;;;;;;;72.40;51.77;;;5.80;84.10;;;;;;5035102;28;20022;-70
2021/01/21 06:27:39;;;;;;;69.17;50.47;;;5.80;83.40;;;;;;5035114;28;20072;-71
2021/01/21 06:30:07;;;;;;;73.93;52.77;;;5.80;83.50;;;;;;5034749;28;20029;-70
2021/01/21 06:32:47;;;;;;;67.77;51.10;;;5.80;83.20;;;;;;5034888;28;20029;-70
2021/01/21 06:35:18;;;;;;;76.40;55.03;;;5.90;83.70;;;;;;5034704;28;20060;-70
2021/01/21 06:37:49;;;;;;;79.07;58.23;;;5.80;83.70;;;;;;5034741;28;20025;-70
2021/01/21 06:40:15;;;;;;;74.93;55.40;;;5.80;83.50;;;;;;5035063;28;20059;-70
2021/01/21 06:42:56;;;;;;;72.63;55.43;;;5.80;83.50;;;;;;5034614;28;20032;-70
2021/01/21 06:45:21;;;;;;;75.60;56.13;;;5.80;83.70;;;;;;5034780;28;20053;-70
2021/01/21 06:47:47;;;;;;;75.67;57.13;;;5.80;83.70;;;;;;5034105;28;20049;-70
2021/01/21 06:50:14;;;;;;;76.43;58.27;;;5.80;84.00;;;;;;5033506;28;20102;-71
2021/01/21 06:52:40;;;;;;;82.10;58.00;;;5.80;83.70;;;;;;5035877;28;20033;-70
2021/01/21 06:55:10;;;;;;;83.87;60.10;;;5.80;84.30;;;;;;5033434;28;20067;-70
2021/01/21 06:57:42;;;;;;;77.97;59.37;;;5.80;84.20;;;;;;5033755;28;20466;-71
2021/01/21 07:00:09;;;;;;;83.60;60.53;;;5.80;84.50;;;;;;5032563;28;20037;-70
2021/01/21 07:02:45;;;;;;;84.90;64.43;;;5.80;84.40;;;;;;5033664;28;20029;-71
2021/01/21 07:05:23;;;;;;;82.97;64.13;;;5.80;84.20;;;;;;5033843;28;20025;-70
2021/01/21 07:08:00;;;;;;;85.53;64.67;;;5.80;84.00;;;;;;5033090;28;20499;-70
2021/01/21 07:10:37;;;;;;;85.90;64.50;;;5.80;84.00;;;;;;5033672;28;20049;-71
2021/01/21 07:13:23;;;;;;;84.70;63.63;;;5.80;84.20;;;;;;5032712;28;20474;-70
2021/01/21 07:16:00;;;;;;;84.30;62.37;;;5.80;84.10;;;;;;5033400;28;20033;-70
2021/01/21 07:18:34;;;;;;;80.97;62.50;;;5.80;84.00;;;;;;5033757;28;20390;-70
2021/01/21 07:21:00;;;;;;;79.13;59.63;;;5.80;83.80;;;;;;5034011;28;20029;-71
2021/01/21 07:23:43;;;;;;;80.53;57.50;;;5.80;83.80;;;;;;5033874;28;20036;-70
2021/01/21 07:26:18;;;;;;;81.03;56.90;;;5.80;84.00;;;;;;5033873;28;20033;-69
2021/01/21 07:29:08;;;;;;;71.23;51.83;;;5.90;83.90;;;;;;5033313;28;20187;-69
2021/01/21 07:31:59;;;;;;;75.00;53.50;;;5.90;83.60;;;;;;5033324;28;20184;-69
2021/01/21 07:34:30;;;;;;;80.70;51.53;;;5.80;84.00;;;;;;5033977;28;20104;-70
2021/01/21 07:37:15;;;;;;;72.77;52.57;;;5.90;83.80;;;;;;5033447;28;20041;-68
2021/01/21 07:40:04;;;;;;;68.60;49.83;;;5.90;83.90;;;;;;5030296;28;20021;-68
2021/01/21 07:42:33;;;;;;;72.03;50.53;;;5.90;83.60;;;;;;5029291;28;20135;-67
2021/01/21 07:45:04;;;;;;;77.07;58.17;;;6.00;83.80;;;;;;5031732;28;20037;-68
2021/01/21 07:47:34;;;;;;;74.17;55.37;;;6.00;84.10;;;;;;5031739;28;20032;-67
2021/01/21 07:50:27;;;;;;;72.53;54.53;;;6.00;84.30;;;;;;5032050;28;20036;-66
2021/01/21 07:52:54;;;;;;;75.77;55.63;;;6.00;84.10;;;;;;5031585;28;20033;-67
2021/01/21 07:55:27;;;;;;;78.83;56.90;;;6.00;84.00;;;;;;5032390;28;20079;-67
2021/01/21 07:57:53;;;;;;;72.25;54.78;;;6.00;84.00;;;;;;5030443;28;20460;-67
2021/01/21 08:00:20;;;;;;;77.30;56.23;;;6.00;84.00;;;;;;5030456;28;20032;-67
2021/01/21 08:02:47;;;;;;;76.27;56.50;;;6.00;83.90;;;;;;5032604;28;20037;-67
2021/01/21 08:05:14;;;;;;;78.77;57.47;;;6.10;84.10;;;;;;5033360;28;20033;-67
2021/01/21 08:07:48;;;;;;;72.70;53.77;;;6.10;83.90;;;;;;5033235;28;20041;-68
2021/01/21 08:10:28;;;;;;;78.77;54.63;;;6.10;84.00;;;;;;5033348;28;20478;-66
2021/01/21 08:12:55;;;;;;;75.43;57.70;;;6.10;83.90;;;;;;5031768;28;20449;-68
2021/01/21 08:15:22;;;;;;;77.53;55.57;;;6.10;83.70;;;;;;5031192;28;20022;-67
2021/01/21 08:17:51;;;;;;;77.43;58.60;;;6.10;83.80;;;;;;5030882;28;20032;-68
2021/01/21 08:20:19;;;;;;;81.10;57.93;;;6.10;84.10;;;;;;5032457;28;20072;-67
2021/01/21 08:23:15;;;;;;;72.77;55.33;;;6.20;84.40;;;;;;5032004;28;20034;-67
2021/01/21 08:25:46;;;;;;;74.87;56.67;;;6.20;84.50;;;;;;5027137;28;20398;-67
2021/01/21 08:28:22;;;;;;;71.70;54.87;;;6.30;84.40;;;;;;5031800;28;20041;-67
2021/01/21 08:30:52;;;;;;;71.70;54.77;;;6.30;84.30;;;;;;5031910;28;20083;-67
2021/01/21 08:33:27;;;;;;;75.47;53.30;;;6.40;84.80;;;;;;5033145;28;20036;-66
2021/01/21 08:35:54;;;;;;;71.47;47.73;;;6.50;84.90;;;;;;5032203;28;20064;-67
2021/01/21 08:38:27;;;;;;;62.20;46.40;;;6.60;84.80;;;;;;5032728;28;20037;-67
2021/01/21 08:40:54;;;;;;;74.43;47.78;;;6.70;84.60;;;;;;5031817;28;20482;-68
2021/01/21 08:43:21;;;;;;;66.23;47.60;;;6.70;84.20;;;;;;5032128;28;20061;-67
2021/01/21 08:45:47;;;;;;;65.67;49.40;;;6.70;84.00;;;;;;5032439;28;20083;-68
2021/01/21 08:48:31;;;;;;;68.60;47.53;;;6.70;84.00;;;;;;5032887;28;20405;-68
2021/01/21 08:50:58;;;;;;;64.57;48.03;;;6.80;84.10;;;;;;5032654;28;20433;-67
2021/01/21 08:53:25;;;;;;;68.63;49.17;;;6.80;84.00;;;;;;5032658;28;20029;-68
2021/01/21 08:55:56;;;;;;;63.00;47.13;;;6.90;84.80;;;;;;5032735;28;20116;-70
2021/01/21 08:58:30;;;;;;;68.63;47.90;;;6.90;84.00;;;;;;5032642;28;20022;-70
2021/01/21 09:01:12;;;;;;;64.97;46.97;;;6.90;84.20;;;;;;5032823;28;20413;-70
2021/01/21 09:03:48;;;;;;;66.93;47.83;;;7.00;84.20;;;;;;5032480;28;20121;-71
2021/01/21 09:06:16;;;;;;;69.10;47.67;;;7.00;84.00;;;;;;5032631;28;20053;-69
2021/01/21 09:08:56;;;;;;;58.33;44.10;;;7.00;83.80;;;;;;5032594;28;20017;-69
2021/01/21 09:11:40;;;;;;;63.37;45.10;;;7.00;83.90;;;;;;5032685;28;20033;-70
2021/01/21 09:14:15;;;;;;;61.47;46.27;;;7.00;84.50;;;;;;5032726;28;20025;-71
2021/01/21 09:16:54;;;;;;;61.03;45.80;;;7.00;84.00;;;;;;5032621;28;20030;-71
2021/01/21 09:19:26;;;;;;;65.87;46.40;;;7.00;84.00;;;;;;5032497;28;20029;-71
2021/01/21 09:21:59;;;;;;;64.03;44.70;;;7.00;83.90;;;;;;5032602;28;20025;-69
2021/01/21 09:24:24;;;;;;;;;;;7.10;84.00;;;;;;5032633;28;20038;-69
2021/01/21 09:27:09;;;;;;;65.37;46.30;;;7.10;83.60;;;;;;5033854;28;19912;-71
2021/01/21 09:29:48;;;;;;;61.03;42.80;;;7.10;83.90;;;;;;5035889;28;20037;-70
2021/01/21 09:32:15;;;;;;;64.53;43.87;;;7.10;83.90;;;;;;5035217;28;20037;-69
2021/01/21 09:34:51;;;;;;;57.73;40.30;;;7.10;83.70;;;;;;5036008;28;20029;-70
2021/01/21 09:37:17;;;;;;;57.70;40.20;;;7.10;83.90;;;;;;5036188;28;20021;-69
2021/01/21 09:39:42;;;;;;;58.80;42.10;;;7.10;83.70;;;;;;5035963;28;20028;-70
2021/01/21 09:42:08;;;;;;;68.27;50.60;;;7.10;83.80;;;;;;5035688;28;20034;-69
2021/01/21 09:44:33;;;;;;;70.60;48.03;;;7.10;83.70;;;;;;5035735;28;20041;-69
2021/01/21 09:46:59;;;;;;;78.30;50.23;;;7.10;83.70;;;;;;5035684;28;20105;-70
2021/01/21 09:49:25;;;;;;;72.57;49.30;;;7.10;83.80;;;;;;5035896;28;20121;-70
2021/01/21 09:51:50;;;;;;;64.83;45.07;;;7.10;83.70;;;;;;5035904;28;20538;-70
2021/01/21 09:54:16;;;;;;;64.47;46.60;;;7.20;83.70;;;;;;5035884;28;20364;-70
2021/01/21 09:56:42;;;;;;;62.33;45.47;;;7.20;83.70;;;;;;5035739;28;20026;-70
2021/01/21 09:59:07;;;;;;;65.83;45.70;;;7.20;83.70;;;;;;5035658;28;20466;-70
2021/01/21 10:01:33;;;;;;;62.70;44.17;;;7.20;83.80;;;;;;5035679;28;20372;-70
2021/01/21 10:03:58;;;;;;;72.00;51.67;;;7.20;83.70;;;;;;5035564;28;20139;-70
2021/01/21 10:06:24;;;;;;;83.50;63.03;;;7.20;84.00;;;;;;5035589;28;20148;-70
2021/01/21 10:08:50;;;;;;;87.47;66.40;;;7.20;84.30;;;;;;5035591;28;20061;-69
2021/01/21 10:11:15;;;;;;;93.00;65.83;;;7.30;84.60;;;;;;5035555;28;20028;-69
2021/01/21 10:13:41;;;;;;;85.00;67.03;;;7.30;84.70;;;;;;5035484;28;20025;-69
2021/01/21 10:16:07;;;;;;;87.13;66.63;;;7.30;85.00;;;;;;5035741;28;20096;-69
2021/01/21 10:18:32;;;;;;;87.20;67.87;;;7.30;84.80;;;;;;5035034;28;20061;-70
2021/01/21 10:20:58;;;;;;;87.37;66.57;;;7.30;84.70;;;;;;5035122;28;20022;-71
2021/01/21 10:23:23;;;;;;;92.43;67.00;;;7.30;84.90;;;;;;5035304;28;20105;-70
2021/01/21 10:25:49;;;;;;;85.77;66.67;;;7.30;84.80;;;;;;5035375;28;20144;-72
2021/01/21 10:28:15;;;;;;;88.17;66.33;;;7.30;84.70;;;;;;5034441;28;20095;-69
2021/01/21 10:30:40;;;;;;;83.93;66.90;;;7.30;84.60;;;;;;5035091;28;20026;-70
2021/01/21 10:33:06;;;;;;;89.00;66.97;;;7.30;84.40;;;;;;5034917;28;20040;-70
2021/01/21 10:35:32;;;;;;;87.63;66.60;;;7.30;84.40;;;;;;5035124;28;20025;-69
2021/01/21 10:37:57;;;;;;;86.90;66.03;;;7.30;84.50;;;;;;5034886;28;20053;-70
2021/01/21 10:40:23;;;;;;;92.37;66.97;;;7.30;84.50;;;;;;5034776;28;20025;-71
2021/01/21 10:42:48;;;;;;;79.27;63.03;;;7.30;84.50;;;;;;5034802;28;20036;-69
2021/01/21 10:45:14;;;;;;;86.87;66.77;;;7.30;84.70;;;;;;5034507;28;20033;-69
2021/01/21 10:47:40;;;;;;;92.03;69.43;;;7.30;84.80;;;;;;5034654;28;20021;-71
2021/01/21 10:50:06;;;;;;;86.57;68.40;;;7.40;84.80;;;;;;5034825;28;20036;-69
2021/01/21 10:52:32;;;;;;;86.30;66.93;;;7.30;84.80;;;;;;5041479;28;20497;-70
2021/01/21 10:54:59;;;;;;;84.73;64.07;;;7.40;84.80;;;;;;5034555;28;20017;-71
2021/01/21 10:57:25;;;;;;;84.40;61.33;;;7.40;84.70;;;;;;5049649;28;20433;-69
2021/01/21 10:59:50;;;;;;;72.13;47.03;;;7.40;84.80;;;;;;5034635;28;20037;-72
2021/01/21 11:02:16;;;;;;;63.53;44.83;;;7.40;85.00;;;;;;5034458;28;20458;-70
2021/01/21 11:04:42;;;;;;;60.43;42.17;;;7.40;84.90;;;;;;5034330;28;20042;-70
2021/01/21 11:07:08;;;;;;;58.13;40.40;;;7.40;84.90;;;;;;5034600;28;20026;-71
2021/01/21 11:09:36;;;;;;;61.53;40.90;;;7.40;84.90;;;;;;5034314;28;20029;-70
2021/01/21 11:12:03;;;;;;;60.93;41.73;;;7.40;84.80;;;;;;5034350;28;20433;-71
2021/01/21 11:14:29;;;;;;;56.70;40.37;;;7.40;84.60;;;;;;5034138;28;20455;-70
2021/01/21 11:16:55;;;;;;;60.70;41.97;;;7.40;84.60;;;;;;5034059;28;20105;-69
2021/01/21 11:19:21;;;;;;;56.03;40.07;;;7.40;84.50;;;;;;5033952;28;20458;-70
2021/01/21 11:21:46;;;;;;;57.17;39.60;;;7.40;84.50;;;;;;5034114;28;20444;-69
2021/01/21 11:24:12;;;;;;;61.27;40.60;;;7.40;84.60;;;;;;5033600;28;20466;-69
2021/01/21 11:26:38;;;;;;;58.63;39.23;;;7.40;84.50;;;;;;5033578;28;20025;-69
2021/01/21 11:29:03;;;;;;;59.13;38.60;;;7.40;84.70;;;;;;5033564;28;20053;-69
2021/01/21 11:31:29;;;;;;;59.77;36.47;;;7.40;84.60;;;;;;5033707;28;20105;-69
2021/01/21 11:33:54;;;;;;;56.07;38.17;;;7.40;84.60;;;;;;5033951;28;20025;-68
2021/01/21 11:36:20;;;;;;;52.67;36.17;;;7.40;84.60;;;;;;5033938;28;20029;-75
2021/01/21 11:38:46;;;;;;;57.57;35.83;;;7.40;84.50;;;;;;5033741;28;20072;-69
2021/01/21 11:41:12;;;;;;;50.23;34.53;;;7.50;84.50;;;;;;5033907;28;20030;-68
2021/01/21 11:43:37;;;;;;;47.57;35.73;;;7.50;84.50;;;;;;5033475;28;20037;-70
2021/01/21 11:46:03;;;;;;;50.43;34.17;;;7.50;84.50;;;;;;5033541;28;20025;-73
2021/01/21 11:48:29;;;;;;;49.53;34.53;;;7.50;84.50;;;;;;5033372;28;20056;-73
2021/01/21 11:50:54;;;;;;;47.50;35.03;;;7.50;84.40;;;;;;5033218;28;20030;-70
2021/01/21 11:53:20;;;;;;;48.50;35.33;;;7.50;84.40;;;;;;5033555;28;20022;-70
2021/01/21 11:55:46;;;;;;;53.60;35.20;;;7.50;84.50;;;;;;5033591;28;20034;-70
2021/01/21 11:58:11;;;;;;;61.40;36.20;;;7.50;84.50;;;;;;5033063;28;20024;-73
2021/01/21 12:00:37;;;;;;;56.87;35.83;;;7.50;84.60;;;;;;5033507;28;20045;-69
2021/01/21 12:03:03;;;;;;;51.30;35.37;;;7.50;84.60;;;;;;5033374;28;20032;-70
2021/01/21 12:05:28;;;;;;;51.97;34.07;;;7.60;84.80;;;;;;5033326;28;20037;-70
2021/01/21 12:07:54;;;;;;;49.60;34.17;;;7.50;84.90;;;;;;5033281;28;20032;-70
2021/01/21 12:10:20;;;;;;;55.10;36.93;;;7.50;84.90;;;;;;5033175;28;20087;-70
2021/01/21 12:12:48;;;;;;;48.83;34.73;;;7.50;85.00;;;;;;5033273;28;20067;-70
2021/01/21 12:15:14;;;;;;;48.30;34.43;;;7.50;85.50;;;;;;5033251;28;20029;-70
2021/01/21 12:17:40;;;;;;;52.83;35.90;;;7.50;85.30;;;;;;5032906;28;20029;-70
2021/01/21 12:20:07;;;;;;;51.30;35.97;;;7.50;85.20;;;;;;5033055;28;20104;-69
2021/01/21 12:22:32;;;;;;;56.13;37.70;;;7.50;85.80;;;;;;5032986;28;20018;-72
2021/01/21 12:24:58;;;;;;;65.07;42.90;;;7.50;86.10;;;;;;5033119;28;20033;-70
2021/01/21 12:27:24;;;;;;;64.67;42.93;;;7.50;86.70;;;;;;5032659;28;20101;-74
2021/01/21 12:29:49;;;;;;;55.00;39.73;;;7.50;86.20;;;;;;5033038;28;20120;-67
2021/01/21 12:32:15;;;;;;;53.03;37.03;;;7.50;85.90;;;;;;5032559;28;20031;-67
2021/01/21 12:34:41;;;;;;;56.40;37.70;;;7.50;85.80;;;;;;5032743;28;20037;-67
2021/01/21 12:37:06;;;;;;;71.53;50.77;;;7.50;85.70;;;;;;5032883;28;20051;-67
2021/01/21 12:39:32;;;;;;;66.83;48.10;;;7.50;86.50;;;;;;5032851;28;20021;-70
2021/01/21 12:41:58;;;;;;;60.30;42.63;;;7.50;86.10;;;;;;5032679;28;20075;-67